sensor_id;sensor_type;location;lat;lon;timestamp;P1;durP1;ratioP1;P2;durP2;ratioP2
485;SDS011;229;48.734;9.340;2023-03-31T00:02:01;4.13;;;2.60;;
485;SDS011;229;48.734;9.340;2023-03-31T00:04:31;5.53;;;2.83;;
485;SDS011;229;48.734;9.340;2023-03-31T00:06:58;3.30;;;2.60;;
485;SDS011;229;48.734;9.340;2023-03-31T00:09:25;8.32;;;2.90;;
485;SDS011;229;48.734;9.340;2023-03-31T00:11:53;4.93;;;2.80;;
485;SDS011;229;48.734;9.340;2023-03-31T00:14:21;5.75;;;3.10;;
485;SDS011;229;48.734;9.340;2023-03-31T00:16:48;4.78;;;2.63;;
485;SDS011;229;48.734;9.340;2023-03-31T00:19:16;7.50;;;3.35;;
485;SDS011;229;48.734;9.340;2023-03-31T00:21:44;5.15;;;2.97;;
485;SDS011;229;48.734;9.340;2023-03-31T00:24:12;6.85;;;3.00;;
485;SDS011;229;48.734;9.340;2023-03-31T00:26:39;6.88;;;3.50;;
485;SDS011;229;48.734;9.340;2023-03-31T00:29:07;6.22;;;2.80;;
485;SDS011;229;48.734;9.340;2023-03-31T00:31:34;5.75;;;2.80;;
485;SDS011;229;48.734;9.340;2023-03-31T00:34:02;6.97;;;3.25;;
485;SDS011;229;48.734;9.340;2023-03-31T00:36:31;10.07;;;3.17;;
485;SDS011;229;48.734;9.340;2023-03-31T00:39:01;6.22;;;2.90;;
485;SDS011;229;48.734;9.340;2023-03-31T00:41:29;4.85;;;2.67;;
485;SDS011;229;48.734;9.340;2023-03-31T00:44:01;9.68;;;3.58;;
485;SDS011;229;48.734;9.340;2023-03-31T00:46:32;6.35;;;2.80;;
485;SDS011;229;48.734;9.340;2023-03-31T00:49:00;9.30;;;3.00;;
485;SDS011;229;48.734;9.340;2023-03-31T00:51:28;5.22;;;3.00;;
485;SDS011;229;48.734;9.340;2023-03-31T00:53:58;7.43;;;3.00;;
485;SDS011;229;48.734;9.340;2023-03-31T00:56:29;4.80;;;2.92;;
485;SDS011;229;48.734;9.340;2023-03-31T00:59:00;7.95;;;3.10;;
485;SDS011;229;48.734;9.340;2023-03-31T01:01:28;4.95;;;3.35;;
485;SDS011;229;48.734;9.340;2023-03-31T01:03:56;4.95;;;2.70;;
485;SDS011;229;48.734;9.340;2023-03-31T01:06:23;6.32;;;3.08;;
485;SDS011;229;48.734;9.340;2023-03-31T01:08:55;5.75;;;3.15;;
485;SDS011;229;48.734;9.340;2023-03-31T01:11:24;6.03;;;2.88;;
485;SDS011;229;48.734;9.340;2023-03-31T01:13:54;9.32;;;3.00;;
485;SDS011;229;48.734;9.340;2023-03-31T01:16:22;10.05;;;3.45;;
485;SDS011;229;48.734;9.340;2023-03-31T01:18:49;10.38;;;3.60;;
485;SDS011;229;48.734;9.340;2023-03-31T01:21:29;13.45;;;3.63;;
485;SDS011;229;48.734;9.340;2023-03-31T01:26:56;6.68;;;2.95;;
485;SDS011;229;48.734;9.340;2023-03-31T01:29:42;5.78;;;3.10;;
485;SDS011;229;48.734;9.340;2023-03-31T01:32:31;7.05;;;3.45;;
485;SDS011;229;48.734;9.340;2023-03-31T01:35:26;5.53;;;3.22;;
485;SDS011;229;48.734;9.340;2023-03-31T01:38:04;6.18;;;4.30;;
485;SDS011;229;48.734;9.340;2023-03-31T01:40:50;8.80;;;3.92;;
485;SDS011;229;48.734;9.340;2023-03-31T01:43:20;10.35;;;3.60;;
485;SDS011;229;48.734;9.340;2023-03-31T01:45:52;6.72;;;3.25;;
485;SDS011;229;48.734;9.340;2023-03-31T01:48:21;5.50;;;3.05;;
485;SDS011;229;48.734;9.340;2023-03-31T01:50:52;8.25;;;3.30;;
485;SDS011;229;48.734;9.340;2023-03-31T01:53:22;8.23;;;3.28;;
485;SDS011;229;48.734;9.340;2023-03-31T01:55:56;5.40;;;3.00;;
485;SDS011;229;48.734;9.340;2023-03-31T01:58:26;7.55;;;3.53;;
485;SDS011;229;48.734;9.340;2023-03-31T02:00:57;10.25;;;3.20;;
485;SDS011;229;48.734;9.340;2023-03-31T02:03:28;6.00;;;2.80;;
485;SDS011;229;48.734;9.340;2023-03-31T02:05:59;8.52;;;3.00;;
485;SDS011;229;48.734;9.340;2023-03-31T02:08:30;7.20;;;3.70;;
485;SDS011;229;48.734;9.340;2023-03-31T02:10:59;8.00;;;3.40;;
485;SDS011;229;48.734;9.340;2023-03-31T02:13:26;7.63;;;3.42;;
485;SDS011;229;48.734;9.340;2023-03-31T02:15:55;5.18;;;3.10;;
485;SDS011;229;48.734;9.340;2023-03-31T02:18:24;6.32;;;3.05;;
485;SDS011;229;48.734;9.340;2023-03-31T02:20:54;4.93;;;3.00;;
485;SDS011;229;48.734;9.340;2023-03-31T02:23:23;5.30;;;3.40;;
485;SDS011;229;48.734;9.340;2023-03-31T02:25:54;8.43;;;3.17;;
485;SDS011;229;48.734;9.340;2023-03-31T02:28:25;7.75;;;3.83;;
485;SDS011;229;48.734;9.340;2023-03-31T02:30:56;6.70;;;3.50;;
485;SDS011;229;48.734;9.340;2023-03-31T02:33:24;11.40;;;3.88;;
485;SDS011;229;48.734;9.340;2023-03-31T02:35:52;10.02;;;3.50;;
485;SDS011;229;48.734;9.340;2023-03-31T02:38:19;7.18;;;3.70;;
485;SDS011;229;48.734;9.340;2023-03-31T02:40:46;12.35;;;3.38;;
485;SDS011;229;48.734;9.340;2023-03-31T02:43:13;9.27;;;3.58;;
485;SDS011;229;48.734;9.340;2023-03-31T02:45:44;6.65;;;3.20;;
485;SDS011;229;48.734;9.340;2023-03-31T02:48:13;8.60;;;4.00;;
485;SDS011;229;48.734;9.340;2023-03-31T02:50:53;7.53;;;3.20;;
485;SDS011;229;48.734;9.340;2023-03-31T02:53:26;5.53;;;2.95;;
485;SDS011;229;48.734;9.340;2023-03-31T02:55:59;7.40;;;3.30;;
485;SDS011;229;48.734;9.340;2023-03-31T02:58:35;13.43;;;4.18;;
485;SDS011;229;48.734;9.340;2023-03-31T03:01:12;5.75;;;3.45;;
485;SDS011;229;48.734;9.340;2023-03-31T03:03:45;6.35;;;3.13;;
485;SDS011;229;48.734;9.340;2023-03-31T03:06:23;4.72;;;3.05;;
485;SDS011;229;48.734;9.340;2023-03-31T03:09:01;8.82;;;3.65;;
485;SDS011;229;48.734;9.340;2023-03-31T03:11:32;9.95;;;3.38;;
485;SDS011;229;48.734;9.340;2023-03-31T03:14:03;8.38;;;3.90;;
485;SDS011;229;48.734;9.340;2023-03-31T03:16:34;10.45;;;4.20;;
485;SDS011;229;48.734;9.340;2023-03-31T03:19:03;11.75;;;4.35;;
485;SDS011;229;48.734;9.340;2023-03-31T03:21:31;8.40;;;3.75;;
485;SDS011;229;48.734;9.340;2023-03-31T03:23:58;5.20;;;3.58;;
485;SDS011;229;48.734;9.340;2023-03-31T03:26:26;8.27;;;3.15;;
485;SDS011;229;48.734;9.340;2023-03-31T03:28:54;7.05;;;3.40;;
485;SDS011;229;48.734;9.340;2023-03-31T03:31:21;9.40;;;3.50;;
485;SDS011;229;48.734;9.340;2023-03-31T03:33:51;9.20;;;3.80;;
485;SDS011;229;48.734;9.340;2023-03-31T03:36:18;5.75;;;3.15;;
485;SDS011;229;48.734;9.340;2023-03-31T03:38:47;5.88;;;3.85;;
485;SDS011;229;48.734;9.340;2023-03-31T03:41:15;8.30;;;3.95;;
485;SDS011;229;48.734;9.340;2023-03-31T03:43:42;6.05;;;3.50;;
485;SDS011;229;48.734;9.340;2023-03-31T03:46:09;5.65;;;3.85;;
485;SDS011;229;48.734;9.340;2023-03-31T03:48:36;6.65;;;3.70;;
485;SDS011;229;48.734;9.340;2023-03-31T03:51:05;6.30;;;3.60;;
485;SDS011;229;48.734;9.340;2023-03-31T03:53:32;6.65;;;3.03;;
485;SDS011;229;48.734;9.340;2023-03-31T03:55:59;6.45;;;3.75;;
485;SDS011;229;48.734;9.340;2023-03-31T03:58:26;6.95;;;3.60;;
485;SDS011;229;48.734;9.340;2023-03-31T04:00:54;5.38;;;3.47;;
485;SDS011;229;48.734;9.340;2023-03-31T04:03:22;7.15;;;3.92;;
485;SDS011;229;48.734;9.340;2023-03-31T04:05:49;10.57;;;4.25;;
485;SDS011;229;48.734;9.340;2023-03-31T04:08:18;7.18;;;4.15;;
485;SDS011;229;48.734;9.340;2023-03-31T04:10:46;8.45;;;4.22;;
485;SDS011;229;48.734;9.340;2023-03-31T04:13:14;10.93;;;4.20;;
485;SDS011;229;48.734;9.340;2023-03-31T04:15:41;8.75;;;4.60;;
485;SDS011;229;48.734;9.340;2023-03-31T04:18:08;9.48;;;4.10;;
485;SDS011;229;48.734;9.340;2023-03-31T04:20:46;13.38;;;5.25;;
485;SDS011;229;48.734;9.340;2023-03-31T04:23:20;9.73;;;4.45;;
485;SDS011;229;48.734;9.340;2023-03-31T04:25:50;7.97;;;4.45;;
485;SDS011;229;48.734;9.340;2023-03-31T04:28:17;10.75;;;4.70;;
485;SDS011;229;48.734;9.340;2023-03-31T04:30:44;10.93;;;4.03;;
485;SDS011;229;48.734;9.340;2023-03-31T04:33:13;9.07;;;4.43;;
485;SDS011;229;48.734;9.340;2023-03-31T04:35:41;8.38;;;4.70;;
485;SDS011;229;48.734;9.340;2023-03-31T04:38:13;14.55;;;6.63;;
485;SDS011;229;48.734;9.340;2023-03-31T04:40:44;10.80;;;5.00;;
485;SDS011;229;48.734;9.340;2023-03-31T04:43:11;9.30;;;5.03;;
485;SDS011;229;48.734;9.340;2023-03-31T04:45:38;6.20;;;4.03;;
485;SDS011;229;48.734;9.340;2023-03-31T04:48:06;7.63;;;4.28;;
485;SDS011;229;48.734;9.340;2023-03-31T04:50:33;11.63;;;5.68;;
485;SDS011;229;48.734;9.340;2023-03-31T04:53:00;8.32;;;4.80;;
485;SDS011;229;48.734;9.340;2023-03-31T04:55:27;10.30;;;5.18;;
485;SDS011;229;48.734;9.340;2023-03-31T04:57:56;10.45;;;5.45;;
485;SDS011;229;48.734;9.340;2023-03-31T05:00:23;5.75;;;4.50;;
485;SDS011;229;48.734;9.340;2023-03-31T05:02:51;9.95;;;5.18;;
485;SDS011;229;48.734;9.340;2023-03-31T05:05:18;14.77;;;6.35;;
485;SDS011;229;48.734;9.340;2023-03-31T05:07:45;16.45;;;6.15;;
485;SDS011;229;48.734;9.340;2023-03-31T05:10:13;13.10;;;6.32;;
485;SDS011;229;48.734;9.340;2023-03-31T05:12:40;11.73;;;6.35;;
485;SDS011;229;48.734;9.340;2023-03-31T05:15:09;13.23;;;6.15;;
485;SDS011;229;48.734;9.340;2023-03-31T05:17:37;11.48;;;5.78;;
485;SDS011;229;48.734;9.340;2023-03-31T05:20:04;15.60;;;6.35;;
485;SDS011;229;48.734;9.340;2023-03-31T05:22:32;8.73;;;6.07;;
485;SDS011;229;48.734;9.340;2023-03-31T05:25:00;7.63;;;5.38;;
485;SDS011;229;48.734;9.340;2023-03-31T05:27:28;9.20;;;5.80;;
485;SDS011;229;48.734;9.340;2023-03-31T05:29:55;10.10;;;5.55;;
485;SDS011;229;48.734;9.340;2023-03-31T05:32:24;13.50;;;6.72;;
485;SDS011;229;48.734;9.340;2023-03-31T05:34:51;16.27;;;7.32;;
485;SDS011;229;48.734;9.340;2023-03-31T05:37:21;15.55;;;7.22;;
485;SDS011;229;48.734;9.340;2023-03-31T05:39:49;15.40;;;7.22;;
485;SDS011;229;48.734;9.340;2023-03-31T05:42:16;10.45;;;5.28;;
485;SDS011;229;48.734;9.340;2023-03-31T05:44:43;10.13;;;6.47;;
485;SDS011;229;48.734;9.340;2023-03-31T05:47:11;10.10;;;6.50;;
485;SDS011;229;48.734;9.340;2023-03-31T05:49:39;16.65;;;7.00;;
485;SDS011;229;48.734;9.340;2023-03-31T05:52:07;9.88;;;5.78;;
485;SDS011;229;48.734;9.340;2023-03-31T05:54:34;17.23;;;6.80;;
485;SDS011;229;48.734;9.340;2023-03-31T05:57:01;12.70;;;7.43;;
485;SDS011;229;48.734;9.340;2023-03-31T05:59:29;18.58;;;7.57;;
485;SDS011;229;48.734;9.340;2023-03-31T06:01:56;10.95;;;6.50;;
485;SDS011;229;48.734;9.340;2023-03-31T06:04:23;19.38;;;6.75;;
485;SDS011;229;48.734;9.340;2023-03-31T06:06:52;17.38;;;7.45;;
485;SDS011;229;48.734;9.340;2023-03-31T06:09:20;11.07;;;6.32;;
485;SDS011;229;48.734;9.340;2023-03-31T06:11:47;15.52;;;6.70;;
485;SDS011;229;48.734;9.340;2023-03-31T06:14:14;10.05;;;6.28;;
485;SDS011;229;48.734;9.340;2023-03-31T06:16:41;13.02;;;6.28;;
485;SDS011;229;48.734;9.340;2023-03-31T06:19:09;14.18;;;7.15;;
485;SDS011;229;48.734;9.340;2023-03-31T06:21:36;17.05;;;7.43;;
485;SDS011;229;48.734;9.340;2023-03-31T06:24:05;11.52;;;6.40;;
485;SDS011;229;48.734;9.340;2023-03-31T06:26:32;27.35;;;7.00;;
485;SDS011;229;48.734;9.340;2023-03-31T06:28:59;11.90;;;6.57;;
485;SDS011;229;48.734;9.340;2023-03-31T06:31:26;11.32;;;7.10;;
485;SDS011;229;48.734;9.340;2023-03-31T06:33:54;11.75;;;7.18;;
485;SDS011;229;48.734;9.340;2023-03-31T06:36:21;14.70;;;7.68;;
485;SDS011;229;48.734;9.340;2023-03-31T06:38:49;12.70;;;7.28;;
485;SDS011;229;48.734;9.340;2023-03-31T06:41:17;16.05;;;8.20;;
485;SDS011;229;48.734;9.340;2023-03-31T06:43:46;19.73;;;8.05;;
485;SDS011;229;48.734;9.340;2023-03-31T06:46:13;18.90;;;7.88;;
485;SDS011;229;48.734;9.340;2023-03-31T06:48:41;13.15;;;7.20;;
485;SDS011;229;48.734;9.340;2023-03-31T06:51:08;15.52;;;8.40;;
485;SDS011;229;48.734;9.340;2023-03-31T06:53:35;18.70;;;8.25;;
485;SDS011;229;48.734;9.340;2023-03-31T06:56:03;9.90;;;7.20;;
485;SDS011;229;48.734;9.340;2023-03-31T06:58:32;25.38;;;9.80;;
485;SDS011;229;48.734;9.340;2023-03-31T07:01:00;23.85;;;11.43;;
485;SDS011;229;48.734;9.340;2023-03-31T07:03:28;18.88;;;10.00;;
485;SDS011;229;48.734;9.340;2023-03-31T07:05:55;23.83;;;11.27;;
485;SDS011;229;48.734;9.340;2023-03-31T07:08:23;22.85;;;11.57;;
485;SDS011;229;48.734;9.340;2023-03-31T07:10:52;19.73;;;10.57;;
485;SDS011;229;48.734;9.340;2023-03-31T07:13:20;17.95;;;9.60;;
485;SDS011;229;48.734;9.340;2023-03-31T07:15:48;19.60;;;9.35;;
485;SDS011;229;48.734;9.340;2023-03-31T07:18:16;21.30;;;9.73;;
485;SDS011;229;48.734;9.340;2023-03-31T07:20:43;18.85;;;8.60;;
485;SDS011;229;48.734;9.340;2023-03-31T07:23:10;18.15;;;7.78;;
485;SDS011;229;48.734;9.340;2023-03-31T07:25:37;22.23;;;7.82;;
485;SDS011;229;48.734;9.340;2023-03-31T07:28:05;12.93;;;7.25;;
485;SDS011;229;48.734;9.340;2023-03-31T07:30:32;13.45;;;7.15;;
485;SDS011;229;48.734;9.340;2023-03-31T07:33:01;8.90;;;6.20;;
485;SDS011;229;48.734;9.340;2023-03-31T07:35:28;12.50;;;5.55;;
485;SDS011;229;48.734;9.340;2023-03-31T07:37:55;11.48;;;5.57;;
485;SDS011;229;48.734;9.340;2023-03-31T07:40:23;11.07;;;5.55;;
485;SDS011;229;48.734;9.340;2023-03-31T07:42:51;10.07;;;4.55;;
485;SDS011;229;48.734;9.340;2023-03-31T07:45:18;5.88;;;3.92;;
485;SDS011;229;48.734;9.340;2023-03-31T07:47:46;4.78;;;3.75;;
485;SDS011;229;48.734;9.340;2023-03-31T07:50:15;5.45;;;3.50;;
485;SDS011;229;48.734;9.340;2023-03-31T07:52:43;5.03;;;3.03;;
485;SDS011;229;48.734;9.340;2023-03-31T07:55:11;4.50;;;3.20;;
485;SDS011;229;48.734;9.340;2023-03-31T07:57:38;4.30;;;3.20;;
485;SDS011;229;48.734;9.340;2023-03-31T08:00:06;6.18;;;3.88;;
485;SDS011;229;48.734;9.340;2023-03-31T08:02:36;5.20;;;3.10;;
485;SDS011;229;48.734;9.340;2023-03-31T08:05:04;2.97;;;2.78;;
485;SDS011;229;48.734;9.340;2023-03-31T08:07:33;4.65;;;2.92;;
485;SDS011;229;48.734;9.340;2023-03-31T08:10:01;5.55;;;2.65;;
485;SDS011;229;48.734;9.340;2023-03-31T08:12:29;5.28;;;3.30;;
485;SDS011;229;48.734;9.340;2023-03-31T08:14:56;2.72;;;2.53;;
485;SDS011;229;48.734;9.340;2023-03-31T08:17:23;2.92;;;2.72;;
485;SDS011;229;48.734;9.340;2023-03-31T08:19:50;7.88;;;3.35;;
485;SDS011;229;48.734;9.340;2023-03-31T08:22:18;6.03;;;3.58;;
485;SDS011;229;48.734;9.340;2023-03-31T08:24:48;3.40;;;3.20;;
485;SDS011;229;48.734;9.340;2023-03-31T08:27:15;4.60;;;3.00;;
485;SDS011;229;48.734;9.340;2023-03-31T08:29:43;4.25;;;3.20;;
485;SDS011;229;48.734;9.340;2023-03-31T08:32:10;3.42;;;3.13;;
485;SDS011;229;48.734;9.340;2023-03-31T08:34:37;6.68;;;4.18;;
485;SDS011;229;48.734;9.340;2023-03-31T08:37:06;4.20;;;3.72;;
485;SDS011;229;48.734;9.340;2023-03-31T08:39:34;4.28;;;3.40;;
485;SDS011;229;48.734;9.340;2023-03-31T08:42:03;4.30;;;3.70;;
485;SDS011;229;48.734;9.340;2023-03-31T08:44:33;3.90;;;3.70;;
485;SDS011;229;48.734;9.340;2023-03-31T08:47:01;3.85;;;3.50;;
485;SDS011;229;48.734;9.340;2023-03-31T08:49:30;4.55;;;3.80;;
485;SDS011;229;48.734;9.340;2023-03-31T08:52:00;5.78;;;3.47;;
485;SDS011;229;48.734;9.340;2023-03-31T08:54:30;3.50;;;3.10;;
485;SDS011;229;48.734;9.340;2023-03-31T08:56:57;4.20;;;3.72;;
485;SDS011;229;48.734;9.340;2023-03-31T08:59:27;4.15;;;2.95;;
485;SDS011;229;48.734;9.340;2023-03-31T09:01:56;4.75;;;3.60;;
485;SDS011;229;48.734;9.340;2023-03-31T09:04:29;2.97;;;2.80;;
485;SDS011;229;48.734;9.340;2023-03-31T09:07:01;5.22;;;3.65;;
485;SDS011;229;48.734;9.340;2023-03-31T09:09:32;4.32;;;3.00;;
485;SDS011;229;48.734;9.340;2023-03-31T09:12:04;6.63;;;3.53;;
485;SDS011;229;48.734;9.340;2023-03-31T09:14:34;3.88;;;3.65;;
485;SDS011;229;48.734;9.340;2023-03-31T09:17:06;4.97;;;3.40;;
485;SDS011;229;48.734;9.340;2023-03-31T09:19:37;5.27;;;4.23;;
485;SDS011;229;48.734;9.340;2023-03-31T09:22:08;5.00;;;4.00;;
485;SDS011;229;48.734;9.340;2023-03-31T09:24:39;4.63;;;4.33;;
485;SDS011;229;48.734;9.340;2023-03-31T09:27:11;5.50;;;3.50;;
485;SDS011;229;48.734;9.340;2023-03-31T09:29:41;4.50;;;4.20;;
485;SDS011;229;48.734;9.340;2023-03-31T09:32:12;4.47;;;3.80;;
485;SDS011;229;48.734;9.340;2023-03-31T09:34:40;7.13;;;4.97;;
485;SDS011;229;48.734;9.340;2023-03-31T09:37:08;7.27;;;4.43;;
485;SDS011;229;48.734;9.340;2023-03-31T09:39:35;7.10;;;5.23;;
485;SDS011;229;48.734;9.340;2023-03-31T09:42:03;4.63;;;3.80;;
485;SDS011;229;48.734;9.340;2023-03-31T09:44:32;4.50;;;3.77;;
485;SDS011;229;48.734;9.340;2023-03-31T09:47:02;3.97;;;3.77;;
485;SDS011;229;48.734;9.340;2023-03-31T09:49:32;4.97;;;3.70;;
485;SDS011;229;48.734;9.340;2023-03-31T09:52:01;6.87;;;4.03;;
485;SDS011;229;48.734;9.340;2023-03-31T09:54:33;5.63;;;4.07;;
485;SDS011;229;48.734;9.340;2023-03-31T09:57:01;7.70;;;4.63;;
485;SDS011;229;48.734;9.340;2023-03-31T09:59:29;5.47;;;3.80;;
485;SDS011;229;48.734;9.340;2023-03-31T10:01:58;4.87;;;4.10;;
485;SDS011;229;48.734;9.340;2023-03-31T10:04:28;7.70;;;4.20;;
485;SDS011;229;48.734;9.340;2023-03-31T10:06:56;4.10;;;3.67;;
485;SDS011;229;48.734;9.340;2023-03-31T10:09:24;4.03;;;3.50;;
485;SDS011;229;48.734;9.340;2023-03-31T10:11:52;4.80;;;3.33;;
485;SDS011;229;48.734;9.340;2023-03-31T10:14:23;3.30;;;3.10;;
485;SDS011;229;48.734;9.340;2023-03-31T10:16:52;8.33;;;4.03;;
485;SDS011;229;48.734;9.340;2023-03-31T10:19:20;6.27;;;3.50;;
485;SDS011;229;48.734;9.340;2023-03-31T10:21:54;4.87;;;3.70;;
485;SDS011;229;48.734;9.340;2023-03-31T10:24:22;7.00;;;3.80;;
485;SDS011;229;48.734;9.340;2023-03-31T10:26:51;5.43;;;3.97;;
485;SDS011;229;48.734;9.340;2023-03-31T10:29:20;5.80;;;4.20;;
485;SDS011;229;48.734;9.340;2023-03-31T10:31:49;4.97;;;3.90;;
485;SDS011;229;48.734;9.340;2023-03-31T10:34:17;7.53;;;3.83;;
485;SDS011;229;48.734;9.340;2023-03-31T10:36:45;9.37;;;4.00;;
485;SDS011;229;48.734;9.340;2023-03-31T10:39:14;9.30;;;5.60;;
485;SDS011;229;48.734;9.340;2023-03-31T10:41:42;7.50;;;3.90;;
485;SDS011;229;48.734;9.340;2023-03-31T10:44:28;5.20;;;3.67;;
485;SDS011;229;48.734;9.340;2023-03-31T10:46:56;7.97;;;3.93;;
485;SDS011;229;48.734;9.340;2023-03-31T10:49:29;7.57;;;4.00;;
485;SDS011;229;48.734;9.340;2023-03-31T10:51:57;6.03;;;3.80;;
485;SDS011;229;48.734;9.340;2023-03-31T10:54:26;8.90;;;4.53;;
485;SDS011;229;48.734;9.340;2023-03-31T10:56:53;4.83;;;3.97;;
485;SDS011;229;48.734;9.340;2023-03-31T10:59:34;8.83;;;3.93;;
485;SDS011;229;48.734;9.340;2023-03-31T11:02:16;8.47;;;4.30;;
485;SDS011;229;48.734;9.340;2023-03-31T11:04:47;6.73;;;4.30;;
485;SDS011;229;48.734;9.340;2023-03-31T11:07:25;6.67;;;4.73;;
485;SDS011;229;48.734;9.340;2023-03-31T11:09:58;6.10;;;4.37;;
485;SDS011;229;48.734;9.340;2023-03-31T11:12:29;5.20;;;4.53;;
485;SDS011;229;48.734;9.340;2023-03-31T11:15:02;4.83;;;3.80;;
485;SDS011;229;48.734;9.340;2023-03-31T11:17:36;4.87;;;4.37;;
485;SDS011;229;48.734;9.340;2023-03-31T11:20:12;12.47;;;4.60;;
485;SDS011;229;48.734;9.340;2023-03-31T11:22:43;7.63;;;4.00;;
485;SDS011;229;48.734;9.340;2023-03-31T11:25:16;6.80;;;4.00;;
485;SDS011;229;48.734;9.340;2023-03-31T11:28:04;5.23;;;4.20;;
485;SDS011;229;48.734;9.340;2023-03-31T11:30:38;8.03;;;5.23;;
485;SDS011;229;48.734;9.340;2023-03-31T11:33:14;7.40;;;4.63;;
485;SDS011;229;48.734;9.340;2023-03-31T11:35:49;5.32;;;4.95;;
485;SDS011;229;48.734;9.340;2023-03-31T11:38:30;5.63;;;3.85;;
485;SDS011;229;48.734;9.340;2023-03-31T11:41:01;4.60;;;3.80;;
485;SDS011;229;48.734;9.340;2023-03-31T11:43:32;3.97;;;3.30;;
485;SDS011;229;48.734;9.340;2023-03-31T11:46:02;5.10;;;4.20;;
485;SDS011;229;48.734;9.340;2023-03-31T11:48:32;3.60;;;3.50;;
485;SDS011;229;48.734;9.340;2023-03-31T11:51:01;4.07;;;3.88;;
485;SDS011;229;48.734;9.340;2023-03-31T11:53:29;4.18;;;3.08;;
485;SDS011;229;48.734;9.340;2023-03-31T11:55:58;4.10;;;3.78;;
485;SDS011;229;48.734;9.340;2023-03-31T11:58:29;4.75;;;3.60;;
485;SDS011;229;48.734;9.340;2023-03-31T12:01:00;6.50;;;3.63;;
485;SDS011;229;48.734;9.340;2023-03-31T12:03:31;3.72;;;3.25;;
485;SDS011;229;48.734;9.340;2023-03-31T12:06:01;3.60;;;3.40;;
485;SDS011;229;48.734;9.340;2023-03-31T12:08:31;3.50;;;3.30;;
485;SDS011;229;48.734;9.340;2023-03-31T12:11:01;2.95;;;2.75;;
485;SDS011;229;48.734;9.340;2023-03-31T12:13:38;2.55;;;2.35;;
485;SDS011;229;48.734;9.340;2023-03-31T12:16:08;3.92;;;3.33;;
485;SDS011;229;48.734;9.340;2023-03-31T12:18:38;3.38;;;3.17;;
485;SDS011;229;48.734;9.340;2023-03-31T12:21:06;3.30;;;3.10;;
485;SDS011;229;48.734;9.340;2023-03-31T12:23:34;3.17;;;2.97;;
485;SDS011;229;48.734;9.340;2023-03-31T12:26:05;3.63;;;3.42;;
485;SDS011;229;48.734;9.340;2023-03-31T12:28:37;3.70;;;3.50;;
485;SDS011;229;48.734;9.340;2023-03-31T12:31:06;3.47;;;3.20;;
485;SDS011;229;48.734;9.340;2023-03-31T12:33:35;5.22;;;3.30;;
485;SDS011;229;48.734;9.340;2023-03-31T12:36:11;4.43;;;4.13;;
485;SDS011;229;48.734;9.340;2023-03-31T12:38:45;3.80;;;3.60;;
485;SDS011;229;48.734;9.340;2023-03-31T12:41:18;3.70;;;3.50;;
485;SDS011;229;48.734;9.340;2023-03-31T12:44:00;3.70;;;3.30;;
485;SDS011;229;48.734;9.340;2023-03-31T12:49:21;7.78;;;4.03;;
485;SDS011;229;48.734;9.340;2023-03-31T12:51:53;3.72;;;3.17;;
485;SDS011;229;48.734;9.340;2023-03-31T12:54:29;4.07;;;2.63;;
485;SDS011;229;48.734;9.340;2023-03-31T12:57:02;3.72;;;3.50;;
485;SDS011;229;48.734;9.340;2023-03-31T12:59:32;4.47;;;3.58;;
485;SDS011;229;48.734;9.340;2023-03-31T13:04:45;6.78;;;3.00;;
485;SDS011;229;48.734;9.340;2023-03-31T13:07:32;4.75;;;3.10;;
485;SDS011;229;48.734;9.340;2023-03-31T13:10:22;3.45;;;3.03;;
485;SDS011;229;48.734;9.340;2023-03-31T13:12:55;5.82;;;3.47;;
485;SDS011;229;48.734;9.340;2023-03-31T13:15:25;3.28;;;2.90;;
485;SDS011;229;48.734;9.340;2023-03-31T13:17:55;3.40;;;3.20;;
485;SDS011;229;48.734;9.340;2023-03-31T13:20:25;7.18;;;4.65;;
485;SDS011;229;48.734;9.340;2023-03-31T13:23:00;9.23;;;3.60;;
485;SDS011;229;48.734;9.340;2023-03-31T13:30:57;7.00;;;3.60;;
485;SDS011;229;48.734;9.340;2023-03-31T13:33:27;7.05;;;3.38;;
485;SDS011;229;48.734;9.340;2023-03-31T13:36:02;7.88;;;3.95;;
485;SDS011;229;48.734;9.340;2023-03-31T13:38:40;6.00;;;4.07;;
485;SDS011;229;48.734;9.340;2023-03-31T13:41:21;8.07;;;4.00;;
485;SDS011;229;48.734;9.340;2023-03-31T13:44:05;7.00;;;3.90;;
485;SDS011;229;48.734;9.340;2023-03-31T13:46:49;9.48;;;4.10;;
485;SDS011;229;48.734;9.340;2023-03-31T13:52:08;7.20;;;3.95;;
485;SDS011;229;48.734;9.340;2023-03-31T13:54:54;5.07;;;3.45;;
485;SDS011;229;48.734;9.340;2023-03-31T14:00:13;4.80;;;4.00;;
485;SDS011;229;48.734;9.340;2023-03-31T14:05:36;2.85;;;2.65;;
485;SDS011;229;48.734;9.340;2023-03-31T14:08:06;3.95;;;3.75;;
485;SDS011;229;48.734;9.340;2023-03-31T14:10:36;3.97;;;3.78;;
485;SDS011;229;48.734;9.340;2023-03-31T14:13:05;3.70;;;3.50;;
485;SDS011;229;48.734;9.340;2023-03-31T14:15:34;3.10;;;2.90;;
485;SDS011;229;48.734;9.340;2023-03-31T14:18:02;3.08;;;2.88;;
485;SDS011;229;48.734;9.340;2023-03-31T14:20:32;3.58;;;3.38;;
485;SDS011;229;48.734;9.340;2023-03-31T14:23:09;2.90;;;2.50;;
485;SDS011;229;48.734;9.340;2023-03-31T14:25:40;3.40;;;3.20;;
485;SDS011;229;48.734;9.340;2023-03-31T14:28:15;3.80;;;3.60;;
485;SDS011;229;48.734;9.340;2023-03-31T14:30:47;3.08;;;2.88;;
485;SDS011;229;48.734;9.340;2023-03-31T14:33:23;5.72;;;2.60;;
485;SDS011;229;48.734;9.340;2023-03-31T14:35:54;2.70;;;2.50;;
485;SDS011;229;48.734;9.340;2023-03-31T14:38:27;2.92;;;2.83;;
485;SDS011;229;48.734;9.340;2023-03-31T14:40:54;3.50;;;3.30;;
485;SDS011;229;48.734;9.340;2023-03-31T14:43:25;3.00;;;2.80;;
485;SDS011;229;48.734;9.340;2023-03-31T14:45:57;3.40;;;2.40;;
485;SDS011;229;48.734;9.340;2023-03-31T14:48:25;3.25;;;3.05;;
485;SDS011;229;48.734;9.340;2023-03-31T14:50:55;3.42;;;2.70;;
485;SDS011;229;48.734;9.340;2023-03-31T14:53:23;3.45;;;3.25;;
485;SDS011;229;48.734;9.340;2023-03-31T14:55:52;2.70;;;2.50;;
485;SDS011;229;48.734;9.340;2023-03-31T14:58:22;3.03;;;2.83;;
485;SDS011;229;48.734;9.340;2023-03-31T15:00:51;3.20;;;3.00;;
485;SDS011;229;48.734;9.340;2023-03-31T15:03:19;3.00;;;2.80;;
485;SDS011;229;48.734;9.340;2023-03-31T15:05:46;3.45;;;2.70;;
485;SDS011;229;48.734;9.340;2023-03-31T15:08:14;4.15;;;3.05;;
485;SDS011;229;48.734;9.340;2023-03-31T15:10:44;5.65;;;3.22;;
485;SDS011;229;48.734;9.340;2023-03-31T15:13:15;2.75;;;2.53;;
485;SDS011;229;48.734;9.340;2023-03-31T15:15:43;3.28;;;3.08;;
485;SDS011;229;48.734;9.340;2023-03-31T15:18:11;3.30;;;3.10;;
485;SDS011;229;48.734;9.340;2023-03-31T15:20:39;3.35;;;3.15;;
485;SDS011;229;48.734;9.340;2023-03-31T15:23:17;5.53;;;3.45;;
485;SDS011;229;48.734;9.340;2023-03-31T15:25:49;4.18;;;2.40;;
485;SDS011;229;48.734;9.340;2023-03-31T15:28:18;4.35;;;2.95;;
485;SDS011;229;48.734;9.340;2023-03-31T15:30:46;3.03;;;2.85;;
485;SDS011;229;48.734;9.340;2023-03-31T15:33:15;6.93;;;3.30;;
485;SDS011;229;48.734;9.340;2023-03-31T15:35:44;3.00;;;2.80;;
485;SDS011;229;48.734;9.340;2023-03-31T15:38:12;4.60;;;3.30;;
485;SDS011;229;48.734;9.340;2023-03-31T15:40:42;3.20;;;3.00;;
485;SDS011;229;48.734;9.340;2023-03-31T15:43:12;3.58;;;3.20;;
485;SDS011;229;48.734;9.340;2023-03-31T15:45:46;3.38;;;3.17;;
485;SDS011;229;48.734;9.340;2023-03-31T15:48:15;4.43;;;3.25;;
485;SDS011;229;48.734;9.340;2023-03-31T15:50:43;5.57;;;3.03;;
485;SDS011;229;48.734;9.340;2023-03-31T15:53:20;3.28;;;3.08;;
485;SDS011;229;48.734;9.340;2023-03-31T15:55:49;4.10;;;2.97;;
485;SDS011;229;48.734;9.340;2023-03-31T15:58:19;2.95;;;2.85;;
485;SDS011;229;48.734;9.340;2023-03-31T16:00:52;3.42;;;3.20;;
485;SDS011;229;48.734;9.340;2023-03-31T16:03:22;7.15;;;3.20;;
485;SDS011;229;48.734;9.340;2023-03-31T16:05:51;3.03;;;2.83;;
485;SDS011;229;48.734;9.340;2023-03-31T16:08:21;3.50;;;3.33;;
485;SDS011;229;48.734;9.340;2023-03-31T16:10:53;5.60;;;3.00;;
485;SDS011;229;48.734;9.340;2023-03-31T16:13:22;4.00;;;3.30;;
485;SDS011;229;48.734;9.340;2023-03-31T16:15:50;3.10;;;2.90;;
485;SDS011;229;48.734;9.340;2023-03-31T16:18:24;3.70;;;3.40;;
485;SDS011;229;48.734;9.340;2023-03-31T16:20:53;3.60;;;3.40;;
485;SDS011;229;48.734;9.340;2023-03-31T16:23:21;6.70;;;3.75;;